< < Back
Terminal Aerodrome Forecast


Current Version              Previous Versions:   1  2  3  4  5  6  7  8  9  

Terminal Aerodrome Forecast

500
FTUS44 KBMX 242326
TAFBHM
TAF
KBHM 242326Z 2500/2524 14004KT P6SM FEW250
     FM251700 19008KT P6SM SCT250=

Latest METAR

437
SAUS70 KWBC 250700 RRJ
MTRBHM
METAR KBHM 250653Z 00000KT 10SM CLR 19/14 A3016 RMK AO2 SLP205
T01940144


USA.gov is the U.S. government's official web portal to all federal, state and local government web resources and services.